METAR Data
IDs: Format: Raw Decoded Include TAF

Data at: 2124 UTC 01 Dec 2021

METAR for:KMWO (Middletown/Hook Fld, OH, US)
Text:KMWO 012115Z AUTO 17003KT 10SM BKN030 OVC034 08/07 A2989 RMK AO2 T00840065
Temperature: 8.4°C ( 47°F)
Dewpoint: 6.5°C ( 44°F) [RH = 88%]
Pressure (altimeter):29.89 inches Hg (1012.3 mb)
Winds:from the S (170 degrees) at 3 MPH (3 knots; 1.5 m/s)
Visibility:10 or more sm (16+ km)
Ceiling:3000 feet AGL
Clouds: broken clouds at 3000 feet AGL, overcast cloud deck at 3400 feet AGL
QC Flag:automated observation with no human augmentation